Airfield :
LOGIN :

Register | Disclaimer

   EN    FR    IT 

 










Legend :    VFR   Marginal VFR   IFR   Intensive IFR   Very Intensive IFR
Visi :
Ceiling :
>= 8 km
>= 3000ft
5 to 8 km
1000 to 3000 ft
1500m to 5 km
500 to 1000 ft
800 to 1500m
200 to 500 ft
< 800m
< 200 ft
Symbols :   Thunderstorms  Fog  Heavy snow  Heavy precipitations  Wind > 20 kt
SIGMETs :     Misc.  Thunderstorms  Icing  Turbulence  Mountain Waves  Volcanic Ashes







- Airport Elevation : 49 ft
- IATA code : GLZ


EHGR - Gilze-Rijen Airbase

CURRENT METAR :
  • 210725Z AUTO 10006KT 050V150 9000 BR OVC022 03/01 Q1014 WHT

EXPIRED METARs :
  • 210655Z AUTO 09006KT 050V120 9999 SCT023 OVC045 03/01 Q1013 WHT
  • 210625Z AUTO 10006KT 070V130 9000 BR BKN023 OVC026 03/01 Q1013 WHT
  • 210555Z AUTO 09007KT 050V130 9999 SCT043 03/01 Q1012 BLU
  • 210541Z AUTO 09007KT 040V120 9999 SCT025 BKN044 OVC049 03/01 Q1012 BLU
  • 210525Z AUTO 10006KT 060V130 9999 OVC024 03/01 Q1012 WHT
  • 210505Z AUTO 10006KT 070V140 9999 BKN024 OVC027 03/01 Q1012 WHT
  • 210455Z AUTO 10006KT 070V140 9999 BKN021 OVC025 03/01 Q1012 WHT
  • 210446Z AUTO 10007KT 070V140 9999 BKN023 OVC027 03/01 Q1012 WHT
  • 210429Z AUTO 10008KT 070V130 9999 FEW022 BKN025 OVC028 03/01 Q1012 BLU

TAF TAF EHGR
Valid from the 21 at 06:00 until the 21 at 18:00 UTC


210534Z 2106/2118 10007KT CAVOK
PROB30 2106/2109 SCT022 BKN040
No reported NOTAMs for that airfield.



MET'MAP, your aeronautical weather chart ! - Copyright ORBIFLY December 2007 - Disclaimer

ORBIFLY MET'MAP TEAM :

Programming & Development : Alexandra Zaïnal
Concept & Development : Baudouin d'Aumeries
Co-Development & Prog : Marc-Olivier Méhu
Technical & hardware support : Manuel Goepfert

Contact : metmap@orbifly.com




SOURCES & CREDITS :

   NOAA